createdAt,value
2023-02-24T00:00:37.218Z,3.40
2023-02-24T00:03:44.289Z,2.80
2023-02-24T00:06:48.792Z,3.55
2023-02-24T00:09:54.664Z,3.58
2023-02-24T00:13:00.824Z,3.65
2023-02-24T00:16:07.838Z,3.22
2023-02-24T00:19:13.617Z,3.33
2023-02-24T00:22:19.752Z,2.78
2023-02-24T00:25:23.752Z,4.22
2023-02-24T00:28:32.426Z,2.95
2023-02-24T00:31:39.082Z,3.55
2023-02-24T00:34:45.811Z,2.88
2023-02-24T00:37:53.765Z,2.90
2023-02-24T00:41:01.864Z,2.30
2023-02-24T00:44:09.799Z,3.75
2023-02-24T00:47:17.814Z,2.75
2023-02-24T00:50:24.216Z,3.13
2023-02-24T00:53:30.510Z,3.05
2023-02-24T00:56:34.552Z,3.35
2023-02-24T00:59:46.823Z,3.00
2023-02-24T01:02:50.773Z,3.67
2023-02-24T01:05:56.921Z,3.20
2023-02-24T01:09:01.615Z,2.80
2023-02-24T01:12:38.252Z,2.53
2023-02-24T01:15:44.522Z,2.80
2023-02-24T01:18:51.277Z,3.25
2023-02-24T01:21:55.345Z,3.22
2023-02-24T01:25:01.247Z,3.63
2023-02-24T01:28:05.426Z,3.38
2023-02-24T01:31:17.790Z,3.35
2023-02-24T01:34:23.909Z,3.92
2023-02-24T01:37:30.326Z,2.95
2023-02-24T01:40:34.628Z,2.95
2023-02-24T01:44:01.350Z,3.03
2023-02-24T01:47:07.568Z,2.58
2023-02-24T01:50:15.380Z,2.78
2023-02-24T01:53:20.473Z,2.83
2023-02-24T01:56:28.936Z,3.30
2023-02-24T01:59:36.706Z,2.70
2023-02-24T02:02:50.116Z,3.33
2023-02-24T02:05:58.346Z,2.85
2023-02-24T02:09:07.409Z,3.08
2023-02-24T02:12:12.443Z,2.10
2023-02-24T02:15:20.322Z,3.25
2023-02-24T02:18:37.890Z,2.50
2023-02-24T02:22:04.825Z,2.92
2023-02-24T02:25:19.895Z,2.80
2023-02-24T02:28:54.107Z,3.03
2023-02-24T02:32:18.352Z,3.33
2023-02-24T02:35:36.242Z,3.17
2023-02-24T02:38:49.015Z,2.88
2023-02-24T02:42:04.161Z,2.40
2023-02-24T02:45:13.909Z,3.55
2023-02-24T02:48:26.443Z,2.95
2023-02-24T02:51:40.261Z,3.20
2023-02-24T02:54:51.964Z,2.70
2023-02-24T02:57:58.217Z,2.92
2023-02-24T03:01:06.688Z,2.40
2023-02-24T03:04:16.412Z,2.40
2023-02-24T03:07:31.881Z,2.55
2023-02-24T03:10:36.368Z,3.00
2023-02-24T03:13:48.944Z,2.55
2023-02-24T03:16:55.205Z,2.78
2023-02-24T03:20:14.416Z,2.50
2023-02-24T03:23:25.737Z,2.10
2023-02-24T03:26:40.809Z,2.28
2023-02-24T03:29:49.988Z,2.78
2023-02-24T03:33:04.274Z,2.22
2023-02-24T03:36:08.643Z,2.72
2023-02-24T03:39:18.316Z,2.20
2023-02-24T03:42:34.755Z,2.38
2023-02-24T03:45:42.605Z,3.33
2023-02-24T03:48:49.611Z,2.10
2023-02-24T03:52:09.035Z,2.03
2023-02-24T03:55:22.978Z,2.20
2023-02-24T03:58:41.226Z,2.13
2023-02-24T04:01:57.252Z,1.98
2023-02-24T04:05:14.398Z,2.60
2023-02-24T04:08:39.379Z,1.85
2023-02-24T04:11:53.909Z,3.08
2023-02-24T04:15:04.402Z,2.30
2023-02-24T04:18:16.272Z,2.33
2023-02-24T04:21:24.031Z,1.67
2023-02-24T04:24:33.728Z,2.03
2023-02-24T04:27:39.867Z,1.70
2023-02-24T04:30:55.804Z,2.05
2023-02-24T04:34:01.325Z,2.47
2023-02-24T04:37:15.225Z,1.75
2023-02-24T04:40:22.012Z,2.33
2023-02-24T04:43:29.886Z,2.28
2023-02-24T04:46:34.292Z,2.00
2023-02-24T04:49:40.894Z,2.10
2023-02-24T04:52:44.854Z,2.38
2023-02-24T04:55:50.750Z,1.50
2023-02-24T04:58:56.739Z,1.95
2023-02-24T05:02:03.510Z,1.52
2023-02-24T05:05:10.244Z,2.33
2023-02-24T05:08:16.234Z,1.95
2023-02-24T05:14:28.492Z,2.75
2023-02-24T05:17:32.993Z,1.73
2023-02-24T05:20:52.944Z,2.53
2023-02-24T05:23:58.609Z,1.70
2023-02-24T05:27:04.954Z,2.08
2023-02-24T05:30:13.908Z,2.67
2023-02-24T05:33:21.880Z,2.03
2023-02-24T05:36:26.827Z,1.92
2023-02-24T05:39:34.504Z,2.40
2023-02-24T05:42:38.331Z,2.38
2023-02-24T05:45:46.452Z,1.90
2023-02-24T05:48:56.286Z,2.20
2023-02-24T05:52:06.847Z,2.08
2023-02-24T05:55:13.392Z,1.75
2023-02-24T05:58:19.284Z,2.10
2023-02-24T06:01:29.581Z,1.63
2023-02-24T06:04:46.070Z,3.67
2023-02-24T06:07:50.262Z,2.28
2023-02-24T06:10:56.144Z,1.90
2023-02-24T06:14:00.145Z,1.70
2023-02-24T06:17:08.089Z,2.22
2023-02-24T06:20:15.340Z,2.08
2023-02-24T06:23:21.770Z,1.70
2023-02-24T06:26:29.261Z,2.15
2023-02-24T06:29:35.867Z,1.95
2023-02-24T06:32:42.470Z,2.05
2023-02-24T06:35:48.727Z,1.95
2023-02-24T06:38:52.917Z,1.77
2023-02-24T06:42:03.304Z,1.92
2023-02-24T06:45:08.580Z,1.50
2023-02-24T06:48:16.439Z,2.08
2023-02-24T06:51:21.123Z,1.80
2023-02-24T06:54:29.868Z,1.92
2023-02-24T06:57:34.274Z,1.80
2023-02-24T07:00:40.200Z,1.77
2023-02-24T07:04:02.826Z,2.72
2023-02-24T07:07:08.784Z,1.75
2023-02-24T07:10:14.000Z,2.38
2023-02-24T07:13:20.507Z,2.08
2023-02-24T07:16:25.749Z,2.05
2023-02-24T07:19:34.385Z,2.53
2023-02-24T07:22:38.259Z,2.15
2023-02-24T07:25:45.660Z,2.40
2023-02-24T07:28:49.615Z,2.10
2023-02-24T07:31:56.678Z,2.30
2023-02-24T07:35:02.985Z,1.95
2023-02-24T07:38:08.892Z,1.63
2023-02-24T07:41:14.817Z,2.38
2023-02-24T07:44:22.925Z,2.03
2023-02-24T07:47:26.876Z,2.70
2023-02-24T07:50:34.984Z,2.53
2023-02-24T07:53:39.750Z,1.88
2023-02-24T07:56:55.720Z,1.90
2023-02-24T07:59:59.650Z,1.80
2023-02-24T08:03:05.904Z,2.30
2023-02-24T08:06:15.007Z,2.10
2023-02-24T08:09:42.111Z,2.10
2023-02-24T08:12:46.898Z,2.72
2023-02-24T08:15:56.007Z,1.90
2023-02-24T08:19:02.848Z,2.42
2023-02-24T08:22:23.503Z,2.15
2023-02-24T08:25:34.771Z,3.25
2023-02-24T08:28:41.118Z,2.72
2023-02-24T08:31:45.056Z,2.65
2023-02-24T08:34:56.142Z,2.40
2023-02-24T08:38:07.057Z,2.83
2023-02-24T08:41:17.034Z,2.55
2023-02-24T08:44:21.605Z,2.90
2023-02-24T08:47:30.505Z,2.58
2023-02-24T08:50:34.459Z,2.83
2023-02-24T08:53:43.004Z,2.67
2023-02-24T08:56:55.185Z,2.55
2023-02-24T09:00:06.385Z,2.83
2023-02-24T09:03:10.302Z,2.80
2023-02-24T09:06:24.700Z,2.75
2023-02-24T09:09:30.758Z,3.25
2023-02-24T09:12:40.589Z,2.30
2023-02-24T09:15:44.459Z,2.80
2023-02-24T09:19:12.219Z,3.05
2023-02-24T09:22:21.303Z,3.38
2023-02-24T09:25:44.186Z,2.95
2023-02-24T09:28:54.257Z,2.42
2023-02-24T09:32:04.064Z,2.58
2023-02-24T09:35:08.766Z,2.60
2023-02-24T09:38:17.516Z,2.53
2023-02-24T09:41:33.132Z,2.60
2023-02-24T09:44:43.696Z,2.50
2023-02-24T09:47:58.122Z,2.65
2023-02-24T09:51:05.646Z,2.92
2023-02-24T09:54:16.951Z,2.38
2023-02-24T09:57:36.808Z,2.30
2023-02-24T10:00:45.600Z,2.25
2023-02-24T10:04:18.690Z,2.70
2023-02-24T10:07:37.684Z,5.05
2023-02-24T10:11:04.340Z,2.42
2023-02-24T10:14:18.856Z,2.63
2023-02-24T10:17:39.479Z,2.95
2023-02-24T10:20:48.846Z,2.60
2023-02-24T10:24:05.999Z,3.05
2023-02-24T10:27:17.650Z,3.92
2023-02-24T10:30:42.243Z,2.72
2023-02-24T10:33:48.429Z,2.35
2023-02-24T10:36:56.920Z,3.17
2023-02-24T10:40:08.898Z,2.70
2023-02-24T10:43:19.816Z,2.60
2023-02-24T10:46:41.032Z,3.38
2023-02-24T10:49:58.277Z,4.00
2023-02-24T10:53:25.946Z,2.97
2023-02-24T10:56:43.856Z,2.90
2023-02-24T11:00:06.246Z,3.22
2023-02-24T11:06:55.154Z,4.22
2023-02-24T11:10:13.102Z,3.17
2023-02-24T11:13:31.697Z,2.60
2023-02-24T11:17:05.269Z,2.95
2023-02-24T11:20:24.834Z,2.97
2023-02-24T11:23:36.374Z,2.83
2023-02-24T11:26:43.060Z,2.70
2023-02-24T11:30:14.368Z,3.30
2023-02-24T11:33:30.424Z,2.78
2023-02-24T11:36:48.699Z,3.83
2023-02-24T11:39:57.655Z,3.63
2023-02-24T11:43:11.576Z,3.10
2023-02-24T11:46:19.195Z,2.58
2023-02-24T11:49:32.359Z,3.30
2023-02-24T11:52:42.558Z,3.53
2023-02-24T11:55:52.753Z,3.03
2023-02-24T11:59:03.344Z,3.15
2023-02-24T12:02:18.331Z,3.30
2023-02-24T12:05:26.199Z,3.30
2023-02-24T12:08:38.042Z,2.90
2023-02-24T12:11:48.814Z,3.35
2023-02-24T12:14:58.572Z,3.05
2023-02-24T12:18:09.420Z,3.88
2023-02-24T12:21:23.152Z,3.47
2023-02-24T12:24:29.636Z,3.03
2023-02-24T12:27:50.539Z,3.97
2023-02-24T12:31:08.154Z,4.40
2023-02-24T12:34:22.983Z,4.05
2023-02-24T12:37:52.658Z,4.30
2023-02-24T12:41:17.114Z,4.22
2023-02-24T12:44:29.744Z,3.63
2023-02-24T12:47:45.123Z,3.42
2023-02-24T12:50:54.953Z,3.42
2023-02-24T12:54:06.535Z,3.42
2023-02-24T12:57:20.619Z,2.92
2023-02-24T13:00:40.217Z,3.25
2023-02-24T13:04:09.535Z,3.58
2023-02-24T13:07:31.957Z,2.90
2023-02-24T13:10:45.120Z,4.15
2023-02-24T13:14:01.651Z,4.47
2023-02-24T13:17:08.658Z,3.95
2023-02-24T13:20:27.963Z,3.50
2023-02-24T13:23:32.449Z,4.07
2023-02-24T13:26:38.355Z,4.18
2023-02-24T13:33:03.273Z,3.20
2023-02-24T13:36:21.048Z,3.42
2023-02-24T13:39:34.081Z,2.63
2023-02-24T13:42:38.275Z,2.83
2023-02-24T13:45:57.541Z,2.65
2023-02-24T13:49:25.704Z,2.60
2023-02-24T13:52:44.861Z,2.33
2023-02-24T13:56:01.850Z,2.38
2023-02-24T13:59:21.836Z,2.58
2023-02-24T14:02:30.363Z,2.90
2023-02-24T14:05:38.082Z,2.33
2023-02-24T14:08:47.316Z,2.58
2023-02-24T14:11:58.934Z,3.17
2023-02-24T14:15:04.309Z,2.70
2023-02-24T14:18:21.834Z,2.78
2023-02-24T14:21:27.539Z,3.42
2023-02-24T14:24:33.454Z,2.45
2023-02-24T14:30:44.837Z,2.45
2023-02-24T14:33:58.448Z,2.88
2023-02-24T14:37:05.498Z,2.92
2023-02-24T14:40:21.238Z,2.60
2023-02-24T14:43:27.604Z,2.53
2023-02-24T14:46:31.974Z,2.40
2023-02-24T14:49:40.235Z,3.03
2023-02-24T14:52:47.647Z,2.70
2023-02-24T14:55:57.464Z,2.05
2023-02-24T14:59:07.576Z,2.55
2023-02-24T15:02:19.546Z,1.55
2023-02-24T15:05:25.849Z,1.25
2023-02-24T15:08:37.606Z,2.25
2023-02-24T15:11:41.687Z,1.10
2023-02-24T15:14:51.758Z,1.55
2023-02-24T15:17:58.545Z,1.20
2023-02-24T15:21:08.461Z,0.95
2023-02-24T15:24:21.188Z,1.00
2023-02-24T15:27:32.304Z,0.95
2023-02-24T15:30:39.229Z,1.10
2023-02-24T15:33:47.568Z,1.40
2023-02-24T15:36:55.868Z,0.93
2023-02-24T15:40:08.694Z,1.00
2023-02-24T15:43:13.282Z,1.08
2023-02-24T15:46:26.499Z,1.90
2023-02-24T15:49:30.619Z,1.20
2023-02-24T15:52:39.737Z,1.77
2023-02-24T15:55:44.518Z,1.80
2023-02-24T15:58:50.460Z,0.88
2023-02-24T16:05:00.220Z,1.17
2023-02-24T16:08:06.774Z,0.50
2023-02-24T16:11:13.191Z,0.90
2023-02-24T16:14:19.833Z,1.10
2023-02-24T16:17:33.063Z,1.80
2023-02-24T16:20:38.935Z,2.38
2023-02-24T16:23:46.878Z,0.70
2023-02-24T16:26:51.093Z,1.23
2023-02-24T16:29:57.435Z,0.93
2023-02-24T16:33:02.680Z,0.98
2023-02-24T16:36:13.522Z,1.58
2023-02-24T16:39:20.088Z,1.75
2023-02-24T16:42:25.950Z,1.63
2023-02-24T16:48:40.002Z,2.40
2023-02-24T16:51:43.916Z,3.28
2023-02-24T16:54:51.868Z,4.53
2023-02-24T16:57:56.071Z,3.53
2023-02-24T17:01:03.930Z,2.45
2023-02-24T17:04:10.477Z,2.00
2023-02-24T17:07:18.471Z,2.33
2023-02-24T17:10:26.559Z,1.30
2023-02-24T17:13:32.702Z,2.20
2023-02-24T17:16:39.607Z,2.47
2023-02-24T17:19:45.534Z,2.35
2023-02-24T17:22:49.828Z,3.80
2023-02-24T17:26:00.535Z,2.60
2023-02-24T17:29:05.401Z,2.25
2023-02-24T17:32:11.502Z,1.73
2023-02-24T17:35:15.572Z,2.75
2023-02-24T17:38:24.068Z,3.40
2023-02-24T17:41:30.239Z,1.98
2023-02-24T17:44:36.491Z,2.28
2023-02-24T17:47:41.207Z,2.53
2023-02-24T17:50:48.049Z,2.50
2023-02-24T17:53:51.939Z,1.98
2023-02-24T17:56:59.737Z,2.67
2023-02-24T18:00:04.233Z,3.05
2023-02-24T18:03:18.422Z,3.75
2023-02-24T18:06:23.058Z,2.60
2023-02-24T18:09:29.183Z,3.00
2023-02-24T18:15:42.054Z,3.10
2023-02-24T18:18:46.104Z,2.58
2023-02-24T18:21:52.091Z,2.70
2023-02-24T18:24:56.303Z,3.55
2023-02-24T18:28:04.430Z,2.63
2023-02-24T18:31:13.628Z,3.35
2023-02-24T18:34:19.546Z,2.92
2023-02-24T18:40:30.618Z,2.70
2023-02-24T18:43:37.211Z,2.60
2023-02-24T18:46:43.267Z,5.22
2023-02-24T18:49:47.303Z,4.47
2023-02-24T18:52:53.243Z,4.20
2023-02-24T18:56:02.429Z,3.63
2023-02-24T18:59:10.284Z,2.72
2023-02-24T19:02:14.227Z,3.08
2023-02-24T19:05:20.656Z,4.35
2023-02-24T19:08:24.667Z,2.95
2023-02-24T19:11:31.038Z,2.97
2023-02-24T19:14:37.148Z,3.05
2023-02-24T19:17:43.030Z,2.83
2023-02-24T19:23:52.984Z,4.03
2023-02-24T19:26:56.944Z,3.10
2023-02-24T19:30:06.185Z,3.22
2023-02-24T19:33:11.328Z,3.05
2023-02-24T19:36:17.569Z,4.43
2023-02-24T19:39:21.543Z,2.83
2023-02-24T19:42:27.885Z,4.65
2023-02-24T19:45:33.853Z,2.70
2023-02-24T19:48:40.892Z,4.45
2023-02-24T19:51:47.133Z,2.70
2023-02-24T19:54:54.312Z,3.60
2023-02-24T19:57:58.238Z,3.30
2023-02-24T20:01:12.356Z,2.78
2023-02-24T20:04:16.310Z,2.63
2023-02-24T20:07:23.790Z,2.47
2023-02-24T20:10:28.028Z,3.40
2023-02-24T20:13:34.079Z,4.15
2023-02-24T20:16:41.580Z,3.47
2023-02-24T20:19:47.813Z,2.50
2023-02-24T20:22:51.716Z,3.53
2023-02-24T20:25:58.605Z,2.90
2023-02-24T20:29:02.593Z,2.35
2023-02-24T20:32:10.811Z,2.20
2023-02-24T20:35:15.031Z,3.05
2023-02-24T20:38:21.005Z,2.58
2023-02-24T20:41:25.961Z,2.53
2023-02-24T20:44:31.916Z,2.97
2023-02-24T20:47:37.769Z,3.85
2023-02-24T20:50:43.855Z,4.95
2023-02-24T20:53:57.276Z,2.95
2023-02-24T20:57:04.181Z,2.63
2023-02-24T21:00:09.421Z,2.63
2023-02-24T21:03:18.248Z,2.63
2023-02-24T21:06:22.458Z,3.42
2023-02-24T21:09:28.696Z,2.60
2023-02-24T21:12:32.904Z,2.95
2023-02-24T21:15:39.432Z,1.75
2023-02-24T21:18:47.282Z,2.53
2023-02-24T21:21:53.218Z,2.17
2023-02-24T21:24:57.080Z,2.28
2023-02-24T21:28:02.968Z,2.45
2023-02-24T21:34:18.975Z,2.10
2023-02-24T21:37:23.186Z,2.63
2023-02-24T21:40:29.187Z,2.35
2023-02-24T21:43:33.318Z,2.78
2023-02-24T21:46:39.307Z,3.78
2023-02-24T21:49:45.660Z,3.13
2023-02-24T21:52:51.751Z,1.52
2023-02-24T21:59:11.199Z,2.30
2023-02-24T22:02:17.326Z,2.17
2023-02-24T22:05:27.222Z,1.77
2023-02-24T22:08:31.081Z,2.33
2023-02-24T22:11:41.110Z,2.60
2023-02-24T22:14:45.051Z,1.77
2023-02-24T22:17:52.065Z,1.92
2023-02-24T22:20:57.909Z,2.30
2023-02-24T22:24:05.027Z,2.80
2023-02-24T22:27:08.896Z,2.58
2023-02-24T22:30:15.893Z,2.13
2023-02-24T22:33:20.121Z,2.72
2023-02-24T22:36:30.581Z,2.22
2023-02-24T22:39:34.651Z,2.80
2023-02-24T22:42:40.587Z,2.13
2023-02-24T22:45:44.547Z,2.83
2023-02-24T22:48:51.437Z,2.78
2023-02-24T22:51:57.268Z,2.58
2023-02-24T22:55:03.329Z,2.90
2023-02-24T22:58:07.354Z,1.85
2023-02-24T23:01:15.428Z,2.70
2023-02-24T23:04:19.576Z,2.47
2023-02-24T23:07:27.550Z,1.85
2023-02-24T23:10:31.534Z,2.80
2023-02-24T23:13:37.708Z,2.75
2023-02-24T23:16:47.673Z,3.17
2023-02-24T23:19:54.127Z,2.20
2023-02-24T23:23:01.177Z,2.35
2023-02-24T23:26:07.364Z,2.70
2023-02-24T23:29:12.850Z,2.22
2023-02-24T23:32:19.162Z,2.90
2023-02-24T23:35:23.136Z,1.98
2023-02-24T23:38:31.338Z,2.30
2023-02-24T23:41:35.553Z,2.17
2023-02-24T23:44:41.743Z,2.15
2023-02-24T23:47:45.711Z,1.63
2023-02-24T23:50:56.354Z,2.50
2023-02-24T23:54:03.131Z,2.30
2023-02-24T23:57:09.037Z,2.42
